Laingsburg, Michigan
Current Conditions -  °F | °C
As of 5:13 PM on Saturday 25 Oct 2014 (Local Time) from KRNP Reporting Station
Clear Clear  
Wind Chill: 64°   Ceiling: Unl
Heat Index: 64°   Visibility: 10mi
Dew Point: 32°   Wind: 23mph
Humidity: 29%   Direction: 250°WSW
Pressure: 29.74"   Gusts: 33mph
Location:  42.89°N, 84.35°W
Report Text: KRNP 252113Z AUTO 25020G29KT 10SM CLR 18/00 A2974 RMK AO2 T01801002
Loading
Personal Weather Stations






























Interactive Weather Map
Tropical Storm Tracking
New forecast layout! Learn more

10-Day Weather Forecast

Advertisements
Track Severe Weather on mobile